Weather at Frenaros Helipad

Public forecast

Using degrees Celsius for public forecast. Weather courtesy of forecast.io.

Closest aviation weather report (METAR) to Frenaros Helipad

Closest report is Larnaca International Airport, 17.4 nm (32.2 km) WSW.

2023/02/05 17:00 (retrieved 32 minutes ago)

LCLK 051700Z VRB03KT 9999 -SHRA FEW020 FEW022CB FEW025TCU BKN037 11/10 Q1004 RETS NOSIG

Closest aviation forecast (TAF) to Frenaros Helipad

Closest forecast is Larnaca International Airport, 17.4 nm (32.2 km) WSW.

2023/02/05 12:30 (retrieved 5 hours ago)

TAF LCLK 051130Z 0512/0612 22014KT 9999 FEW020 SCT050 PROB40 TEMPO 0512/0612 4000 SHRA SCT030TCU PROB30 TEMPO 0512/0606 VRB25G35KT 3000 TSRA SCT025CB